Terminal Aerodrome Forecast
Issued by NWS Charleston, SC

Home | Current Version | Previous Version | Text Only | Print | Product List | Glossary On
Versions: 1 2 3 4 5 6 7 8 9 10 11 12 13 14 15 16 17 18 19 20 21 22 23 24 25 26 27 28
000
FTUS42 KCHS 052232 AAA
TAFSAV
TAF AMD
KSAV 052232Z 0523/0618 32018G26KT 6SM -RA SCT025 BKN040
      TEMPO 0523/0524 4SM -RA SCT010 BKN020
     FM060000 32012G22KT 4SM -RA BR SCT010 OVC020
     FM060600 36012G18KT 5SM -DZ BR OVC008
     FM061300 02013G19KT P6SM SCT009 BKN020=

USA.gov is the U.S. government's official web portal to all federal, state and local government web resources and services.